createdAt,value
2023-03-21T00:01:37.767Z,100647.25
2023-03-21T00:04:04.268Z,100649.94
2023-03-21T00:06:31.058Z,100653.22
2023-03-21T00:08:57.478Z,100646.22
2023-03-21T00:11:23.817Z,100644.09
2023-03-21T00:13:50.196Z,100647.59
2023-03-21T00:16:26.357Z,100642.84
2023-03-21T00:19:06.503Z,100639.94
2023-03-21T00:21:48.772Z,100642.63
2023-03-21T00:24:15.472Z,100646.97
2023-03-21T00:26:41.892Z,100642.38
2023-03-21T00:29:08.253Z,100638.88
2023-03-21T00:31:34.847Z,100640.53
2023-03-21T00:34:01.907Z,100635.97
2023-03-21T00:36:28.453Z,100629.78
2023-03-21T00:38:54.985Z,100636.81
2023-03-21T00:41:35.000Z,100627.88
2023-03-21T00:44:05.287Z,100622.75
2023-03-21T00:46:42.789Z,100622.75
2023-03-21T00:49:11.817Z,100627.31
2023-03-21T00:51:38.174Z,100624.00
2023-03-21T00:54:05.780Z,100621.53
2023-03-21T00:56:32.343Z,100619.88
2023-03-21T00:58:58.829Z,100615.53
2023-03-21T01:01:26.589Z,100604.78
2023-03-21T01:04:05.409Z,100614.72
2023-03-21T01:06:32.689Z,100600.66
2023-03-21T01:08:59.109Z,100609.56
2023-03-21T01:11:27.017Z,100602.53
2023-03-21T01:13:59.771Z,100597.16
2023-03-21T01:16:31.434Z,100602.53
2023-03-21T01:19:03.345Z,100602.53
2023-03-21T01:21:32.072Z,100600.88
2023-03-21T01:23:58.958Z,100599.22
2023-03-21T01:26:25.409Z,100588.47
2023-03-21T01:28:51.792Z,100592.00
2023-03-21T01:31:18.615Z,100593.03
2023-03-21T01:33:45.057Z,100585.19
2023-03-21T01:36:22.310Z,100582.72
2023-03-21T01:38:49.732Z,100588.91
2023-03-21T01:41:36.758Z,100588.13
2023-03-21T01:44:07.335Z,100588.91
2023-03-21T01:46:57.088Z,100583.78
2023-03-21T01:49:34.386Z,100594.31
2023-03-21T01:52:11.451Z,100581.88
2023-03-21T01:54:41.137Z,100582.72
2023-03-21T01:57:09.930Z,100573.81
2023-03-21T01:59:38.607Z,100583.53
2023-03-21T02:02:07.394Z,100571.13
2023-03-21T02:04:35.574Z,100574.88
2023-03-21T02:07:07.587Z,100571.13
2023-03-21T02:09:36.290Z,100574.44
2023-03-21T02:12:03.363Z,100575.47
2023-03-21T02:14:33.334Z,100568.44
2023-03-21T02:17:11.973Z,100564.72
2023-03-21T02:19:53.955Z,100566.59
2023-03-21T02:22:20.677Z,100561.19
2023-03-21T02:25:01.439Z,100556.63
2023-03-21T02:27:34.593Z,100562.00
2023-03-21T02:30:14.904Z,100559.31
2023-03-21T02:32:58.759Z,100549.59
2023-03-21T02:35:54.171Z,100553.38
2023-03-21T02:38:30.656Z,100548.78
2023-03-21T02:41:10.045Z,100541.53
2023-03-21T02:43:44.382Z,100550.66
2023-03-21T02:46:13.889Z,100542.59
2023-03-21T02:48:52.860Z,100545.06
2023-03-21T02:51:22.061Z,100550.44
2023-03-21T02:54:24.576Z,100550.22
2023-03-21T02:56:46.069Z,100542.13
2023-03-21T02:59:12.869Z,100539.22
2023-03-21T03:01:39.323Z,100534.66
2023-03-21T03:04:17.874Z,100534.66
2023-03-21T03:06:48.197Z,100540.63
2023-03-21T03:09:19.918Z,100540.63
2023-03-21T03:11:48.306Z,100535.25
2023-03-21T03:17:11.167Z,100527.19
2023-03-21T03:19:51.477Z,100542.06
2023-03-21T03:22:23.585Z,100530.50
2023-03-21T03:24:58.579Z,100531.31
2023-03-21T03:27:28.227Z,100532.13
2023-03-21T03:29:55.177Z,100530.50
2023-03-21T03:32:25.625Z,100525.09
2023-03-21T03:34:56.399Z,100525.09
2023-03-21T03:37:29.475Z,100528.00
2023-03-21T03:40:00.459Z,100521.81
2023-03-21T03:42:30.465Z,100529.88
2023-03-21T03:44:57.340Z,100526.38
2023-03-21T03:47:42.062Z,100525.53
2023-03-21T03:50:32.201Z,100527.66
2023-03-21T03:53:18.419Z,100526.56
2023-03-21T03:55:45.706Z,100523.06
2023-03-21T03:58:21.579Z,100518.72
2023-03-21T04:00:48.997Z,100521.19
2023-03-21T04:03:16.076Z,100517.69
2023-03-21T04:05:46.335Z,100518.50
2023-03-21T04:08:13.818Z,100515.81
2023-03-21T04:10:40.841Z,100518.50
2023-03-21T04:13:07.425Z,100523.69
2023-03-21T04:15:33.865Z,100519.34
2023-03-21T04:18:00.562Z,100521.81
2023-03-21T04:20:36.619Z,100517.47
2023-03-21T04:23:04.230Z,100517.47
2023-03-21T04:25:34.177Z,100516.66
2023-03-21T04:28:01.052Z,100514.78
2023-03-21T04:30:27.488Z,100511.50
2023-03-21T04:33:01.170Z,100512.31
2023-03-21T04:35:28.490Z,100507.75
2023-03-21T04:37:55.531Z,100506.94
2023-03-21T04:40:22.258Z,100510.44
2023-03-21T04:42:48.988Z,100503.19
2023-03-21T04:45:16.186Z,100505.88
2023-03-21T04:47:42.848Z,100511.03
2023-03-21T04:50:10.677Z,100505.66
2023-03-21T04:52:37.087Z,100507.31
2023-03-21T04:55:03.765Z,100501.94
2023-03-21T04:57:30.176Z,100500.03
2023-03-21T04:59:56.569Z,100506.28
2023-03-21T05:02:22.995Z,100513.50
2023-03-21T05:04:49.387Z,100515.16
2023-03-21T05:07:15.824Z,100509.53
2023-03-21T05:09:42.186Z,100512.47
2023-03-21T05:12:08.574Z,100502.50
2023-03-21T05:14:34.980Z,100508.72
2023-03-21T05:17:05.197Z,100505.19
2023-03-21T05:19:35.630Z,100505.19
2023-03-21T05:22:04.643Z,100501.47
2023-03-21T05:24:32.097Z,100499.81
2023-03-21T05:27:02.152Z,100504.16
2023-03-21T05:29:29.742Z,100504.97
2023-03-21T05:31:56.517Z,100501.47
2023-03-21T05:34:23.115Z,100500.66
2023-03-21T05:36:49.553Z,100496.91
2023-03-21T05:39:16.111Z,100497.72
2023-03-21T05:41:42.559Z,100496.09
2023-03-21T05:44:08.923Z,100489.91
2023-03-21T05:46:35.540Z,100489.06
2023-03-21T05:49:02.814Z,100487.44
2023-03-21T05:51:29.180Z,100480.41
2023-03-21T05:53:55.719Z,100483.31
2023-03-21T05:56:22.126Z,100482.72
2023-03-21T05:58:48.460Z,100480.81
2023-03-21T06:01:14.948Z,100476.53
2023-03-21T06:03:41.405Z,100473.81
2023-03-21T06:06:08.089Z,100477.56
2023-03-21T06:08:34.488Z,100477.56
2023-03-21T06:11:00.930Z,100480.47
2023-03-21T06:13:27.366Z,100486.66
2023-03-21T06:15:53.855Z,100478.38
2023-03-21T06:18:20.286Z,100480.81
2023-03-21T06:20:46.657Z,100486.22
2023-03-21T06:23:13.087Z,100498.63
2023-03-21T06:25:39.760Z,100490.31
2023-03-21T06:28:06.335Z,100494.91
2023-03-21T06:30:32.792Z,100493.00
2023-03-21T06:32:59.148Z,100489.91
2023-03-21T06:35:25.721Z,100491.50
2023-03-21T06:37:52.118Z,100498.53
2023-03-21T06:40:18.540Z,100494.19
2023-03-21T06:42:44.920Z,100485.94
2023-03-21T06:45:11.584Z,100490.25
2023-03-21T06:47:38.043Z,100495.63
2023-03-21T06:50:07.029Z,100487.56
2023-03-21T06:52:33.442Z,100497.03
2023-03-21T06:54:59.805Z,100507.63
2023-03-21T06:57:26.174Z,100502.81
2023-03-21T06:59:52.580Z,100501.78
2023-03-21T07:02:19.023Z,100493.69
2023-03-21T07:04:45.442Z,100491.00
2023-03-21T07:07:11.851Z,100494.28
2023-03-21T07:09:38.208Z,100495.94
2023-03-21T07:12:04.654Z,100490.16
2023-03-21T07:14:32.069Z,100493.00
2023-03-21T07:16:58.486Z,100497.13
2023-03-21T07:19:24.864Z,100490.06
2023-03-21T07:21:51.221Z,100495.03
2023-03-21T07:24:17.573Z,100493.84
2023-03-21T07:26:43.987Z,100496.06
2023-03-21T07:29:10.541Z,100495.03
2023-03-21T07:31:37.500Z,100494.19
2023-03-21T07:34:03.951Z,100496.69
2023-03-21T07:36:30.685Z,100494.56
2023-03-21T07:38:57.091Z,100494.56
2023-03-21T07:41:23.453Z,100492.50
2023-03-21T07:43:49.882Z,100487.09
2023-03-21T07:46:16.305Z,100494.72
2023-03-21T07:48:42.706Z,100483.72
2023-03-21T07:51:09.637Z,100485.13
2023-03-21T07:53:36.141Z,100480.34
2023-03-21T07:56:02.636Z,100480.94
2023-03-21T07:58:29.039Z,100482.44
2023-03-21T08:00:58.431Z,100485.84
2023-03-21T08:03:26.476Z,100478.16
2023-03-21T08:05:52.934Z,100479.34
2023-03-21T08:08:19.343Z,100482.16
2023-03-21T08:10:45.713Z,100475.41
2023-03-21T08:13:12.378Z,100480.22
2023-03-21T08:15:42.478Z,100492.91
2023-03-21T08:18:10.123Z,100481.56
2023-03-21T08:20:36.692Z,100488.03
2023-03-21T08:23:03.326Z,100488.53
2023-03-21T08:25:30.001Z,100490.09
2023-03-21T08:27:56.397Z,100495.63
2023-03-21T08:30:24.072Z,100490.44
2023-03-21T08:32:50.591Z,100497.03
2023-03-21T08:35:19.070Z,100500.69
2023-03-21T08:37:45.445Z,100500.56
2023-03-21T08:40:13.965Z,100500.06
2023-03-21T08:42:40.888Z,100492.91
2023-03-21T08:45:07.950Z,100494.94
2023-03-21T08:47:34.425Z,100505.25
2023-03-21T08:50:00.871Z,100489.16
2023-03-21T08:52:28.230Z,100487.63
2023-03-21T08:54:55.133Z,100486.34
2023-03-21T08:57:21.707Z,100484.69
2023-03-21T08:59:48.274Z,100489.97
2023-03-21T09:02:16.330Z,100484.13
2023-03-21T09:04:43.951Z,100480.34
2023-03-21T09:07:12.543Z,100479.03
2023-03-21T09:09:39.365Z,100481.28
2023-03-21T09:12:05.897Z,100483.25
2023-03-21T09:14:33.296Z,100472.56
2023-03-21T09:16:59.694Z,100475.38
2023-03-21T09:19:26.404Z,100471.13
2023-03-21T09:21:53.910Z,100481.00
2023-03-21T09:24:20.743Z,100478.59
2023-03-21T09:26:51.057Z,100482.84
2023-03-21T09:29:19.151Z,100480.75
2023-03-21T09:31:46.948Z,100490.13
2023-03-21T09:34:15.379Z,100478.31
2023-03-21T09:36:44.231Z,100475.72
2023-03-21T09:39:12.066Z,100474.78
2023-03-21T09:41:52.096Z,100470.50
2023-03-21T09:44:29.802Z,100478.22
2023-03-21T09:47:06.146Z,100475.38
2023-03-21T09:49:35.384Z,100477.91
2023-03-21T09:52:06.670Z,100470.25
2023-03-21T09:54:35.732Z,100460.06
2023-03-21T09:57:05.134Z,100468.63
2023-03-21T09:59:35.860Z,100467.06
2023-03-21T10:02:03.351Z,100472.06
2023-03-21T10:04:31.973Z,100469.91
2023-03-21T10:06:59.772Z,100468.13
2023-03-21T10:09:28.038Z,100471.13
2023-03-21T10:12:08.315Z,100474.22
2023-03-21T10:14:43.782Z,100458.31
2023-03-21T10:17:12.926Z,100466.19
2023-03-21T10:19:39.490Z,100455.09
2023-03-21T10:22:06.200Z,100464.88
2023-03-21T10:24:34.057Z,100446.97
2023-03-21T10:27:01.317Z,100444.28
2023-03-21T10:29:30.548Z,100453.53
2023-03-21T10:31:57.249Z,100449.78
2023-03-21T10:34:29.844Z,100447.88
2023-03-21T10:36:56.359Z,100449.25
2023-03-21T10:39:39.802Z,100452.56
2023-03-21T10:42:06.778Z,100452.31
2023-03-21T10:44:34.715Z,100445.00
2023-03-21T10:47:04.262Z,100447.69
2023-03-21T10:49:40.256Z,100441.72
2023-03-21T10:52:09.267Z,100453.38
2023-03-21T10:54:35.792Z,100446.34
2023-03-21T10:57:09.782Z,100445.50
2023-03-21T10:59:43.065Z,100441.97
2023-03-21T11:02:17.670Z,100443.03
2023-03-21T11:04:44.806Z,100443.84
2023-03-21T11:07:14.398Z,100438.44
2023-03-21T11:09:54.317Z,100438.44
2023-03-21T11:12:29.612Z,100435.72
2023-03-21T11:14:57.427Z,100434.66
2023-03-21T11:17:25.884Z,100430.91
2023-03-21T11:19:53.781Z,100430.66
2023-03-21T11:22:22.276Z,100424.34
2023-03-21T11:24:51.439Z,100434.16
2023-03-21T11:27:18.001Z,100432.03
2023-03-21T11:29:46.430Z,100428.75
2023-03-21T11:32:19.779Z,100423.66
2023-03-21T11:34:49.264Z,100423.41
2023-03-21T11:37:26.689Z,100418.84
2023-03-21T11:40:16.250Z,100413.09
2023-03-21T11:42:44.165Z,100416.94
2023-03-21T11:45:12.896Z,100421.03
2023-03-21T11:47:39.788Z,100409.41
2023-03-21T11:50:16.679Z,100408.56
2023-03-21T11:52:51.361Z,100395.28
2023-03-21T11:55:31.515Z,100400.69
2023-03-21T11:58:13.952Z,100399.38
2023-03-21T12:00:59.533Z,100395.03
2023-03-21T12:03:47.560Z,100383.94
2023-03-21T12:06:21.317Z,100388.03
2023-03-21T12:09:00.071Z,100383.22
2023-03-21T12:11:38.565Z,100382.97
2023-03-21T12:14:16.890Z,100386.25
2023-03-21T12:16:49.756Z,100382.44
2023-03-21T12:19:45.211Z,100374.91
2023-03-21T12:22:29.523Z,100367.34
2023-03-21T12:24:57.203Z,100368.97
2023-03-21T12:27:41.888Z,100370.63
2023-03-21T12:30:26.672Z,100359.78
2023-03-21T12:33:07.821Z,100367.91
2023-03-21T12:35:41.544Z,100365.22
2023-03-21T12:38:16.114Z,100365.22
2023-03-21T12:40:48.768Z,100357.34
2023-03-21T12:43:15.553Z,100367.34
2023-03-21T12:45:47.606Z,100363.00
2023-03-21T12:48:19.171Z,100347.84
2023-03-21T12:50:46.556Z,100364.34
2023-03-21T12:53:24.341Z,100366.78
2023-03-21T12:55:51.046Z,100354.06
2023-03-21T12:58:20.397Z,100351.59
2023-03-21T13:00:49.020Z,100351.59
2023-03-21T13:03:30.224Z,100346.44
2023-03-21T13:06:07.116Z,100346.72
2023-03-21T13:08:37.364Z,100352.13
2023-03-21T13:11:05.409Z,100334.25
2023-03-21T13:13:35.181Z,100333.44
2023-03-21T13:16:25.092Z,100335.31
2023-03-21T13:18:59.273Z,100332.59
2023-03-21T13:21:44.340Z,100328.28
2023-03-21T13:24:29.808Z,100330.97
2023-03-21T13:27:00.845Z,100323.94
2023-03-21T13:29:29.626Z,100324.41
2023-03-21T13:32:08.120Z,100322.53
2023-03-21T13:34:34.698Z,100329.81
2023-03-21T13:37:01.343Z,100325.50
2023-03-21T13:39:29.298Z,100317.88
2023-03-21T13:41:56.061Z,100321.66
2023-03-21T13:44:32.929Z,100308.13
2023-03-21T13:47:01.060Z,100309.19
2023-03-21T13:49:27.673Z,100309.47
2023-03-21T13:51:56.348Z,100313.47
2023-03-21T13:54:24.310Z,100317.00
2023-03-21T13:56:52.340Z,100311.03
2023-03-21T13:59:37.802Z,100301.19
2023-03-21T14:02:04.196Z,100312.28
2023-03-21T14:04:41.967Z,100293.81
2023-03-21T14:07:20.270Z,100295.97
2023-03-21T14:09:49.233Z,100286.69
2023-03-21T14:12:20.272Z,100286.13
2023-03-21T14:14:50.120Z,100290.13
2023-03-21T14:17:23.700Z,100287.63
2023-03-21T14:19:54.293Z,100286.31
2023-03-21T14:22:21.198Z,100278.44
2023-03-21T14:25:01.098Z,100285.97
2023-03-21T14:27:35.418Z,100282.72
2023-03-21T14:30:02.321Z,100276.19
2023-03-21T14:32:30.091Z,100277.25
2023-03-21T14:34:57.876Z,100269.13
2023-03-21T14:37:32.266Z,100272.91
2023-03-21T14:40:02.473Z,100270.44
2023-03-21T14:42:33.857Z,100272.91
2023-03-21T22:17:24.108Z,100131.69
2023-03-21T22:20:04.695Z,100114.75
2023-03-21T22:22:32.247Z,100130.47
2023-03-21T22:24:58.624Z,100126.69
2023-03-21T22:27:25.031Z,100127.41
2023-03-21T22:29:51.388Z,100125.78
2023-03-21T22:32:19.176Z,100126.53
2023-03-21T22:34:45.726Z,100135.34
2023-03-21T22:37:12.155Z,100132.34
2023-03-21T22:39:38.554Z,100120.63
2023-03-21T22:42:05.037Z,100132.16
2023-03-21T22:44:35.225Z,100132.06
2023-03-21T22:47:02.497Z,100133.88
2023-03-21T22:49:28.945Z,100127.31
2023-03-21T22:51:55.406Z,100114.53
2023-03-21T22:54:21.831Z,100121.50
2023-03-21T22:56:48.251Z,100130.06
2023-03-21T22:59:14.655Z,100125.38
2023-03-21T23:01:41.061Z,100119.69
2023-03-21T23:04:07.639Z,100116.41
2023-03-21T23:06:34.053Z,100124.97
2023-03-21T23:09:00.524Z,100116.28
2023-03-21T23:11:26.904Z,100125.44
2023-03-21T23:14:06.842Z,100116.75
2023-03-21T23:16:34.954Z,100104.81
2023-03-21T23:19:02.276Z,100109.63
2023-03-21T23:21:28.738Z,100111.75
2023-03-21T23:23:55.085Z,100108.72
2023-03-21T23:26:22.745Z,100106.28
2023-03-21T23:28:49.589Z,100105.13
2023-03-21T23:31:18.311Z,100109.09
2023-03-21T23:33:45.568Z,100104.41
2023-03-21T23:36:12.760Z,100103.03
2023-03-21T23:38:39.128Z,100105.16
2023-03-21T23:41:09.468Z,100102.13
2023-03-21T23:43:35.964Z,100097.22
2023-03-21T23:46:02.491Z,100105.09
2023-03-21T23:48:29.123Z,100108.38
2023-03-21T23:50:55.941Z,100111.06
2023-03-21T23:53:22.362Z,100100.19
2023-03-21T23:55:51.957Z,100098.53
2023-03-21T23:58:19.566Z,100080.16
